sensor_id;sensor_type;location;lat;lon;timestamp;P1;durP1;ratioP1;P2;durP2;ratioP2
12768;SDS011;6448;48.916;8.990;2023-06-14T00:00:01;2.40;;;2.20;;
12768;SDS011;6448;48.916;8.990;2023-06-14T00:01:05;2.47;;;2.28;;
12768;SDS011;6448;48.916;8.990;2023-06-14T00:02:07;2.40;;;2.20;;
12768;SDS011;6448;48.916;8.990;2023-06-14T00:03:09;2.80;;;2.30;;
12768;SDS011;6448;48.916;8.990;2023-06-14T00:04:13;2.35;;;2.15;;
12768;SDS011;6448;48.916;8.990;2023-06-14T00:05:16;2.25;;;2.05;;
12768;SDS011;6448;48.916;8.990;2023-06-14T00:06:18;2.47;;;2.28;;
12768;SDS011;6448;48.916;8.990;2023-06-14T00:07:21;2.33;;;2.20;;
12768;SDS011;6448;48.916;8.990;2023-06-14T00:08:35;2.50;;;2.30;;
12768;SDS011;6448;48.916;8.990;2023-06-14T00:09:36;2.10;;;1.90;;
12768;SDS011;6448;48.916;8.990;2023-06-14T00:10:37;2.40;;;2.20;;
12768;SDS011;6448;48.916;8.990;2023-06-14T00:11:41;2.22;;;2.03;;
12768;SDS011;6448;48.916;8.990;2023-06-14T00:12:43;2.50;;;2.30;;
12768;SDS011;6448;48.916;8.990;2023-06-14T00:13:44;2.27;;;2.13;;
12768;SDS011;6448;48.916;8.990;2023-06-14T00:14:45;2.50;;;2.30;;
12768;SDS011;6448;48.916;8.990;2023-06-14T00:15:47;2.38;;;2.20;;
12768;SDS011;6448;48.916;8.990;2023-06-14T00:16:48;2.40;;;2.20;;
12768;SDS011;6448;48.916;8.990;2023-06-14T00:17:49;2.20;;;2.10;;
12768;SDS011;6448;48.916;8.990;2023-06-14T00:18:51;2.40;;;2.20;;
12768;SDS011;6448;48.916;8.990;2023-06-14T00:19:53;2.40;;;2.20;;
12768;SDS011;6448;48.916;8.990;2023-06-14T00:20:56;2.00;;;1.90;;
12768;SDS011;6448;48.916;8.990;2023-06-14T00:21:57;2.78;;;2.20;;
12768;SDS011;6448;48.916;8.990;2023-06-14T00:22:59;2.10;;;2.00;;
12768;SDS011;6448;48.916;8.990;2023-06-14T00:24:00;2.10;;;1.90;;
12768;SDS011;6448;48.916;8.990;2023-06-14T00:25:02;2.13;;;1.92;;
12768;SDS011;6448;48.916;8.990;2023-06-14T00:26:03;2.30;;;2.00;;
12768;SDS011;6448;48.916;8.990;2023-06-14T00:27:05;2.25;;;2.10;;
12768;SDS011;6448;48.916;8.990;2023-06-14T00:28:06;2.10;;;2.00;;
12768;SDS011;6448;48.916;8.990;2023-06-14T00:29:09;2.25;;;2.15;;
12768;SDS011;6448;48.916;8.990;2023-06-14T00:30:10;2.42;;;2.22;;
12768;SDS011;6448;48.916;8.990;2023-06-14T00:31:13;2.03;;;1.92;;
12768;SDS011;6448;48.916;8.990;2023-06-14T00:32:13;2.60;;;2.40;;
12768;SDS011;6448;48.916;8.990;2023-06-14T00:33:15;2.33;;;2.20;;
12768;SDS011;6448;48.916;8.990;2023-06-14T00:34:17;2.60;;;2.40;;
12768;SDS011;6448;48.916;8.990;2023-06-14T00:35:20;2.53;;;2.30;;
12768;SDS011;6448;48.916;8.990;2023-06-14T00:36:21;2.40;;;2.20;;
12768;SDS011;6448;48.916;8.990;2023-06-14T00:37:23;2.40;;;2.20;;
12768;SDS011;6448;48.916;8.990;2023-06-14T00:38:23;2.33;;;2.13;;
12768;SDS011;6448;48.916;8.990;2023-06-14T00:39:25;3.28;;;2.30;;
12768;SDS011;6448;48.916;8.990;2023-06-14T00:40:26;2.38;;;2.17;;
12768;SDS011;6448;48.916;8.990;2023-06-14T00:41:28;2.47;;;2.28;;
12768;SDS011;6448;48.916;8.990;2023-06-14T00:42:29;2.55;;;2.20;;
12768;SDS011;6448;48.916;8.990;2023-06-14T00:43:30;2.58;;;2.20;;
12768;SDS011;6448;48.916;8.990;2023-06-14T00:44:31;2.30;;;2.10;;
12768;SDS011;6448;48.916;8.990;2023-06-14T00:45:33;2.20;;;2.10;;
12768;SDS011;6448;48.916;8.990;2023-06-14T00:46:36;2.50;;;2.30;;
12768;SDS011;6448;48.916;8.990;2023-06-14T00:47:37;2.80;;;2.60;;
12768;SDS011;6448;48.916;8.990;2023-06-14T00:48:41;2.60;;;2.40;;
12768;SDS011;6448;48.916;8.990;2023-06-14T00:49:44;2.40;;;2.20;;
12768;SDS011;6448;48.916;8.990;2023-06-14T00:50:47;2.40;;;2.20;;
12768;SDS011;6448;48.916;8.990;2023-06-14T00:51:50;2.50;;;2.30;;
12768;SDS011;6448;48.916;8.990;2023-06-14T00:52:52;2.30;;;2.10;;
12768;SDS011;6448;48.916;8.990;2023-06-14T00:53:54;2.60;;;2.40;;
12768;SDS011;6448;48.916;8.990;2023-06-14T00:54:55;2.60;;;2.40;;
12768;SDS011;6448;48.916;8.990;2023-06-14T00:55:57;2.70;;;2.50;;
12768;SDS011;6448;48.916;8.990;2023-06-14T00:56:58;2.30;;;2.17;;
12768;SDS011;6448;48.916;8.990;2023-06-14T00:58:00;2.47;;;2.28;;
12768;SDS011;6448;48.916;8.990;2023-06-14T00:59:00;2.53;;;2.33;;
12768;SDS011;6448;48.916;8.990;2023-06-14T01:00:03;2.30;;;2.20;;
12768;SDS011;6448;48.916;8.990;2023-06-14T01:01:08;2.50;;;2.30;;
12768;SDS011;6448;48.916;8.990;2023-06-14T01:02:11;2.33;;;2.13;;
12768;SDS011;6448;48.916;8.990;2023-06-14T01:03:12;2.40;;;2.20;;
12768;SDS011;6448;48.916;8.990;2023-06-14T01:04:22;2.47;;;2.28;;
12768;SDS011;6448;48.916;8.990;2023-06-14T01:05:22;2.50;;;2.30;;
12768;SDS011;6448;48.916;8.990;2023-06-14T01:06:30;2.40;;;2.20;;
12768;SDS011;6448;48.916;8.990;2023-06-14T01:07:38;2.63;;;2.38;;
12768;SDS011;6448;48.916;8.990;2023-06-14T01:08:50;2.58;;;2.38;;
12768;SDS011;6448;48.916;8.990;2023-06-14T01:10:03;2.38;;;2.25;;
12768;SDS011;6448;48.916;8.990;2023-06-14T01:11:14;2.43;;;2.23;;
12768;SDS011;6448;48.916;8.990;2023-06-14T01:12:21;2.60;;;2.40;;
12768;SDS011;6448;48.916;8.990;2023-06-14T01:13:32;2.70;;;2.50;;
12768;SDS011;6448;48.916;8.990;2023-06-14T01:14:34;2.58;;;2.38;;
12768;SDS011;6448;48.916;8.990;2023-06-14T01:15:37;2.60;;;2.40;;
12768;SDS011;6448;48.916;8.990;2023-06-14T01:16:39;2.63;;;2.42;;
12768;SDS011;6448;48.916;8.990;2023-06-14T01:17:41;2.75;;;2.55;;
12768;SDS011;6448;48.916;8.990;2023-06-14T01:18:45;2.70;;;2.50;;
12768;SDS011;6448;48.916;8.990;2023-06-14T01:19:50;2.55;;;2.35;;
12768;SDS011;6448;48.916;8.990;2023-06-14T01:20:57;2.67;;;2.47;;
12768;SDS011;6448;48.916;8.990;2023-06-14T01:22:00;2.60;;;2.40;;
12768;SDS011;6448;48.916;8.990;2023-06-14T01:23:03;2.58;;;2.38;;
12768;SDS011;6448;48.916;8.990;2023-06-14T01:24:05;2.60;;;2.40;;
12768;SDS011;6448;48.916;8.990;2023-06-14T01:25:07;2.60;;;2.40;;
12768;SDS011;6448;48.916;8.990;2023-06-14T01:26:09;2.92;;;2.55;;
12768;SDS011;6448;48.916;8.990;2023-06-14T01:27:14;2.50;;;2.30;;
12768;SDS011;6448;48.916;8.990;2023-06-14T01:28:17;2.50;;;2.30;;
12768;SDS011;6448;48.916;8.990;2023-06-14T01:29:18;2.60;;;2.40;;
12768;SDS011;6448;48.916;8.990;2023-06-14T01:30:21;2.30;;;2.20;;
12768;SDS011;6448;48.916;8.990;2023-06-14T01:31:25;2.80;;;2.60;;
12768;SDS011;6448;48.916;8.990;2023-06-14T01:32:29;2.58;;;2.38;;
12768;SDS011;6448;48.916;8.990;2023-06-14T01:33:30;2.50;;;2.30;;
12768;SDS011;6448;48.916;8.990;2023-06-14T01:34:33;2.60;;;2.40;;
12768;SDS011;6448;48.916;8.990;2023-06-14T01:35:34;2.58;;;2.38;;
12768;SDS011;6448;48.916;8.990;2023-06-14T01:36:36;2.50;;;2.30;;
12768;SDS011;6448;48.916;8.990;2023-06-14T01:37:40;2.50;;;2.30;;
12768;SDS011;6448;48.916;8.990;2023-06-14T01:38:45;2.60;;;2.40;;
12768;SDS011;6448;48.916;8.990;2023-06-14T01:39:48;2.60;;;2.40;;
12768;SDS011;6448;48.916;8.990;2023-06-14T01:40:53;2.47;;;2.30;;
12768;SDS011;6448;48.916;8.990;2023-06-14T01:41:59;2.40;;;2.20;;
12768;SDS011;6448;48.916;8.990;2023-06-14T01:43:02;2.60;;;2.40;;
12768;SDS011;6448;48.916;8.990;2023-06-14T01:44:04;2.60;;;2.40;;
12768;SDS011;6448;48.916;8.990;2023-06-14T01:45:07;2.70;;;2.50;;
12768;SDS011;6448;48.916;8.990;2023-06-14T01:46:10;2.30;;;2.10;;
12768;SDS011;6448;48.916;8.990;2023-06-14T01:47:13;2.40;;;2.20;;
12768;SDS011;6448;48.916;8.990;2023-06-14T01:48:15;2.50;;;2.30;;
12768;SDS011;6448;48.916;8.990;2023-06-14T01:49:17;2.70;;;2.50;;
12768;SDS011;6448;48.916;8.990;2023-06-14T01:50:18;2.47;;;2.28;;
12768;SDS011;6448;48.916;8.990;2023-06-14T01:51:21;2.60;;;2.40;;
12768;SDS011;6448;48.916;8.990;2023-06-14T01:52:22;2.67;;;2.47;;
12768;SDS011;6448;48.916;8.990;2023-06-14T01:53:24;2.72;;;2.53;;
12768;SDS011;6448;48.916;8.990;2023-06-14T01:54:26;2.65;;;2.45;;
12768;SDS011;6448;48.916;8.990;2023-06-14T01:55:29;2.50;;;2.30;;
12768;SDS011;6448;48.916;8.990;2023-06-14T01:56:33;2.60;;;2.40;;
12768;SDS011;6448;48.916;8.990;2023-06-14T01:57:35;2.50;;;2.30;;
12768;SDS011;6448;48.916;8.990;2023-06-14T01:58:36;2.70;;;2.50;;
12768;SDS011;6448;48.916;8.990;2023-06-14T01:59:39;2.75;;;2.55;;
12768;SDS011;6448;48.916;8.990;2023-06-14T02:00:40;2.50;;;2.30;;
12768;SDS011;6448;48.916;8.990;2023-06-14T02:01:43;2.70;;;2.50;;
12768;SDS011;6448;48.916;8.990;2023-06-14T02:02:44;2.80;;;2.60;;
12768;SDS011;6448;48.916;8.990;2023-06-14T02:03:46;2.60;;;2.40;;
12768;SDS011;6448;48.916;8.990;2023-06-14T02:04:50;2.53;;;2.33;;
12768;SDS011;6448;48.916;8.990;2023-06-14T02:05:52;2.70;;;2.50;;
12768;SDS011;6448;48.916;8.990;2023-06-14T02:06:54;2.60;;;2.40;;
12768;SDS011;6448;48.916;8.990;2023-06-14T02:07:56;2.70;;;2.50;;
12768;SDS011;6448;48.916;8.990;2023-06-14T02:08:56;2.40;;;2.20;;
12768;SDS011;6448;48.916;8.990;2023-06-14T02:10:03;2.70;;;2.50;;
12768;SDS011;6448;48.916;8.990;2023-06-14T02:11:05;2.60;;;2.40;;
12768;SDS011;6448;48.916;8.990;2023-06-14T02:12:07;2.63;;;2.42;;
12768;SDS011;6448;48.916;8.990;2023-06-14T02:13:08;2.75;;;2.55;;
12768;SDS011;6448;48.916;8.990;2023-06-14T02:14:10;2.97;;;2.40;;
12768;SDS011;6448;48.916;8.990;2023-06-14T02:15:12;2.85;;;2.65;;
12768;SDS011;6448;48.916;8.990;2023-06-14T02:16:16;2.40;;;2.20;;
12768;SDS011;6448;48.916;8.990;2023-06-14T02:17:18;2.78;;;2.58;;
12768;SDS011;6448;48.916;8.990;2023-06-14T02:18:19;2.63;;;2.42;;
12768;SDS011;6448;48.916;8.990;2023-06-14T02:19:21;2.67;;;2.47;;
12768;SDS011;6448;48.916;8.990;2023-06-14T02:20:22;2.50;;;2.30;;
12768;SDS011;6448;48.916;8.990;2023-06-14T02:21:24;2.75;;;2.55;;
12768;SDS011;6448;48.916;8.990;2023-06-14T02:22:24;2.83;;;2.63;;
12768;SDS011;6448;48.916;8.990;2023-06-14T02:23:26;2.65;;;2.45;;
12768;SDS011;6448;48.916;8.990;2023-06-14T02:24:27;2.70;;;2.50;;
12768;SDS011;6448;48.916;8.990;2023-06-14T02:25:30;2.60;;;2.40;;
12768;SDS011;6448;48.916;8.990;2023-06-14T02:26:31;2.70;;;2.50;;
12768;SDS011;6448;48.916;8.990;2023-06-14T02:27:33;2.50;;;2.30;;
12768;SDS011;6448;48.916;8.990;2023-06-14T02:28:34;2.83;;;2.63;;
12768;SDS011;6448;48.916;8.990;2023-06-14T02:29:36;2.72;;;2.53;;
12768;SDS011;6448;48.916;8.990;2023-06-14T02:30:37;2.80;;;2.40;;
12768;SDS011;6448;48.916;8.990;2023-06-14T02:31:41;2.65;;;2.45;;
12768;SDS011;6448;48.916;8.990;2023-06-14T02:32:41;2.42;;;2.25;;
12768;SDS011;6448;48.916;8.990;2023-06-14T02:33:46;2.70;;;2.47;;
12768;SDS011;6448;48.916;8.990;2023-06-14T02:34:47;2.60;;;2.40;;
12768;SDS011;6448;48.916;8.990;2023-06-14T02:35:50;2.60;;;2.40;;
12768;SDS011;6448;48.916;8.990;2023-06-14T02:36:52;3.35;;;2.70;;
12768;SDS011;6448;48.916;8.990;2023-06-14T02:37:54;2.70;;;2.50;;
12768;SDS011;6448;48.916;8.990;2023-06-14T02:38:56;2.65;;;2.45;;
12768;SDS011;6448;48.916;8.990;2023-06-14T02:39:58;2.60;;;2.40;;
12768;SDS011;6448;48.916;8.990;2023-06-14T02:41:01;2.90;;;2.70;;
12768;SDS011;6448;48.916;8.990;2023-06-14T02:42:02;2.45;;;2.30;;
12768;SDS011;6448;48.916;8.990;2023-06-14T02:43:04;2.60;;;2.40;;
12768;SDS011;6448;48.916;8.990;2023-06-14T02:44:06;2.75;;;2.55;;
12768;SDS011;6448;48.916;8.990;2023-06-14T02:45:08;2.63;;;2.42;;
12768;SDS011;6448;48.916;8.990;2023-06-14T02:46:09;2.58;;;2.38;;
12768;SDS011;6448;48.916;8.990;2023-06-14T02:47:11;2.50;;;2.30;;
12768;SDS011;6448;48.916;8.990;2023-06-14T02:48:12;2.70;;;2.50;;
12768;SDS011;6448;48.916;8.990;2023-06-14T02:49:14;2.70;;;2.50;;
12768;SDS011;6448;48.916;8.990;2023-06-14T02:50:15;2.42;;;2.22;;
12768;SDS011;6448;48.916;8.990;2023-06-14T02:51:18;2.70;;;2.50;;
12768;SDS011;6448;48.916;8.990;2023-06-14T02:52:18;2.83;;;2.63;;
12768;SDS011;6448;48.916;8.990;2023-06-14T02:53:21;2.80;;;2.60;;
12768;SDS011;6448;48.916;8.990;2023-06-14T02:54:23;2.67;;;2.47;;
12768;SDS011;6448;48.916;8.990;2023-06-14T02:55:25;2.70;;;2.50;;
12768;SDS011;6448;48.916;8.990;2023-06-14T02:56:28;2.60;;;2.40;;
12768;SDS011;6448;48.916;8.990;2023-06-14T02:57:31;2.50;;;2.30;;
12768;SDS011;6448;48.916;8.990;2023-06-14T02:58:32;2.70;;;2.50;;
12768;SDS011;6448;48.916;8.990;2023-06-14T02:59:34;2.80;;;2.50;;
12768;SDS011;6448;48.916;8.990;2023-06-14T03:00:35;2.70;;;2.50;;
12768;SDS011;6448;48.916;8.990;2023-06-14T03:01:39;2.50;;;2.40;;
12768;SDS011;6448;48.916;8.990;2023-06-14T03:02:42;2.80;;;2.60;;
12768;SDS011;6448;48.916;8.990;2023-06-14T03:03:44;2.57;;;2.37;;
12768;SDS011;6448;48.916;8.990;2023-06-14T03:04:45;2.67;;;2.47;;
12768;SDS011;6448;48.916;8.990;2023-06-14T03:05:49;2.50;;;2.30;;
12768;SDS011;6448;48.916;8.990;2023-06-14T03:06:54;2.65;;;2.45;;
12768;SDS011;6448;48.916;8.990;2023-06-14T03:07:57;2.30;;;2.20;;
12768;SDS011;6448;48.916;8.990;2023-06-14T03:08:58;2.80;;;2.42;;
12768;SDS011;6448;48.916;8.990;2023-06-14T03:10:01;2.63;;;2.42;;
12768;SDS011;6448;48.916;8.990;2023-06-14T03:11:03;2.63;;;2.42;;
12768;SDS011;6448;48.916;8.990;2023-06-14T03:12:09;2.60;;;2.40;;
12768;SDS011;6448;48.916;8.990;2023-06-14T03:13:11;2.90;;;2.67;;
12768;SDS011;6448;48.916;8.990;2023-06-14T03:14:14;2.60;;;2.40;;
12768;SDS011;6448;48.916;8.990;2023-06-14T03:15:16;2.58;;;2.38;;
12768;SDS011;6448;48.916;8.990;2023-06-14T03:16:21;2.58;;;2.38;;
12768;SDS011;6448;48.916;8.990;2023-06-14T03:17:24;2.65;;;2.38;;
12768;SDS011;6448;48.916;8.990;2023-06-14T03:18:30;2.60;;;2.40;;
12768;SDS011;6448;48.916;8.990;2023-06-14T03:19:35;2.60;;;2.40;;
12768;SDS011;6448;48.916;8.990;2023-06-14T03:20:38;2.65;;;2.45;;
12768;SDS011;6448;48.916;8.990;2023-06-14T03:21:40;2.63;;;2.42;;
12768;SDS011;6448;48.916;8.990;2023-06-14T03:22:45;2.40;;;2.28;;
12768;SDS011;6448;48.916;8.990;2023-06-14T03:23:46;2.55;;;2.35;;
12768;SDS011;6448;48.916;8.990;2023-06-14T03:24:48;2.73;;;2.53;;
12768;SDS011;6448;48.916;8.990;2023-06-14T03:25:50;2.47;;;2.35;;
12768;SDS011;6448;48.916;8.990;2023-06-14T03:26:52;2.60;;;2.40;;
12768;SDS011;6448;48.916;8.990;2023-06-14T03:27:55;2.70;;;2.42;;
12768;SDS011;6448;48.916;8.990;2023-06-14T03:28:57;2.60;;;2.40;;
12768;SDS011;6448;48.916;8.990;2023-06-14T03:29:57;2.50;;;2.30;;
12768;SDS011;6448;48.916;8.990;2023-06-14T03:30:59;2.60;;;2.40;;
12768;SDS011;6448;48.916;8.990;2023-06-14T03:32:05;2.65;;;2.45;;
12768;SDS011;6448;48.916;8.990;2023-06-14T03:33:10;2.38;;;2.22;;
12768;SDS011;6448;48.916;8.990;2023-06-14T03:34:13;2.67;;;2.47;;
12768;SDS011;6448;48.916;8.990;2023-06-14T03:35:15;3.10;;;2.40;;
12768;SDS011;6448;48.916;8.990;2023-06-14T03:36:17;2.70;;;2.50;;
12768;SDS011;6448;48.916;8.990;2023-06-14T03:37:19;2.60;;;2.40;;
12768;SDS011;6448;48.916;8.990;2023-06-14T03:38:21;2.60;;;2.40;;
12768;SDS011;6448;48.916;8.990;2023-06-14T03:39:24;2.60;;;2.40;;
12768;SDS011;6448;48.916;8.990;2023-06-14T03:40:25;2.50;;;2.30;;
12768;SDS011;6448;48.916;8.990;2023-06-14T03:41:33;2.80;;;2.60;;
12768;SDS011;6448;48.916;8.990;2023-06-14T03:42:37;2.80;;;2.60;;
12768;SDS011;6448;48.916;8.990;2023-06-14T03:43:41;2.67;;;2.47;;
12768;SDS011;6448;48.916;8.990;2023-06-14T03:44:42;2.60;;;2.40;;
12768;SDS011;6448;48.916;8.990;2023-06-14T03:45:44;2.80;;;2.60;;
12768;SDS011;6448;48.916;8.990;2023-06-14T03:46:46;2.90;;;2.50;;
12768;SDS011;6448;48.916;8.990;2023-06-14T03:47:48;2.92;;;2.40;;
12768;SDS011;6448;48.916;8.990;2023-06-14T03:48:49;2.70;;;2.50;;
12768;SDS011;6448;48.916;8.990;2023-06-14T03:49:51;2.60;;;2.40;;
12768;SDS011;6448;48.916;8.990;2023-06-14T03:50:52;2.78;;;2.45;;
12768;SDS011;6448;48.916;8.990;2023-06-14T03:51:55;3.10;;;2.33;;
12768;SDS011;6448;48.916;8.990;2023-06-14T03:52:57;2.70;;;2.50;;
12768;SDS011;6448;48.916;8.990;2023-06-14T03:54:01;2.65;;;2.45;;
12768;SDS011;6448;48.916;8.990;2023-06-14T03:55:02;2.58;;;2.38;;
12768;SDS011;6448;48.916;8.990;2023-06-14T03:56:06;3.00;;;2.65;;
12768;SDS011;6448;48.916;8.990;2023-06-14T03:57:14;2.67;;;2.47;;
12768;SDS011;6448;48.916;8.990;2023-06-14T03:58:17;2.80;;;2.50;;
12768;SDS011;6448;48.916;8.990;2023-06-14T03:59:20;2.80;;;2.60;;
12768;SDS011;6448;48.916;8.990;2023-06-14T04:00:22;2.90;;;2.65;;
12768;SDS011;6448;48.916;8.990;2023-06-14T04:01:23;2.60;;;2.40;;
12768;SDS011;6448;48.916;8.990;2023-06-14T04:02:27;3.00;;;2.80;;
12768;SDS011;6448;48.916;8.990;2023-06-14T04:03:28;2.67;;;2.47;;
12768;SDS011;6448;48.916;8.990;2023-06-14T04:04:30;2.60;;;2.40;;
12768;SDS011;6448;48.916;8.990;2023-06-14T04:05:32;2.83;;;2.60;;
12768;SDS011;6448;48.916;8.990;2023-06-14T04:06:34;2.72;;;2.53;;
12768;SDS011;6448;48.916;8.990;2023-06-14T04:07:35;2.78;;;2.47;;
12768;SDS011;6448;48.916;8.990;2023-06-14T04:08:40;2.88;;;2.58;;
12768;SDS011;6448;48.916;8.990;2023-06-14T04:09:42;2.63;;;2.42;;
12768;SDS011;6448;48.916;8.990;2023-06-14T04:10:44;2.95;;;2.65;;
12768;SDS011;6448;48.916;8.990;2023-06-14T04:11:44;2.97;;;2.78;;
12768;SDS011;6448;48.916;8.990;2023-06-14T04:12:46;2.70;;;2.50;;
12768;SDS011;6448;48.916;8.990;2023-06-14T04:13:47;2.72;;;2.53;;
12768;SDS011;6448;48.916;8.990;2023-06-14T04:14:50;2.65;;;2.45;;
12768;SDS011;6448;48.916;8.990;2023-06-14T04:15:51;2.75;;;2.55;;
12768;SDS011;6448;48.916;8.990;2023-06-14T04:16:58;2.88;;;2.67;;
12768;SDS011;6448;48.916;8.990;2023-06-14T04:17:59;2.83;;;2.63;;
12768;SDS011;6448;48.916;8.990;2023-06-14T04:19:02;3.90;;;2.60;;
12768;SDS011;6448;48.916;8.990;2023-06-14T04:20:03;2.70;;;2.50;;
12768;SDS011;6448;48.916;8.990;2023-06-14T04:21:07;2.70;;;2.50;;
12768;SDS011;6448;48.916;8.990;2023-06-14T04:22:08;2.60;;;2.40;;
12768;SDS011;6448;48.916;8.990;2023-06-14T04:23:11;2.75;;;2.55;;
12768;SDS011;6448;48.916;8.990;2023-06-14T04:24:13;2.75;;;2.53;;
12768;SDS011;6448;48.916;8.990;2023-06-14T04:25:16;2.80;;;2.60;;
12768;SDS011;6448;48.916;8.990;2023-06-14T04:26:18;2.90;;;2.70;;
12768;SDS011;6448;48.916;8.990;2023-06-14T04:27:21;2.60;;;2.40;;
12768;SDS011;6448;48.916;8.990;2023-06-14T04:28:25;2.90;;;2.70;;
12768;SDS011;6448;48.916;8.990;2023-06-14T04:29:29;2.87;;;2.67;;
12768;SDS011;6448;48.916;8.990;2023-06-14T04:30:37;2.50;;;2.30;;
12768;SDS011;6448;48.916;8.990;2023-06-14T04:31:40;2.80;;;2.60;;
12768;SDS011;6448;48.916;8.990;2023-06-14T04:32:44;2.88;;;2.67;;
12768;SDS011;6448;48.916;8.990;2023-06-14T04:33:46;2.63;;;2.42;;
12768;SDS011;6448;48.916;8.990;2023-06-14T04:34:51;2.70;;;2.50;;
12768;SDS011;6448;48.916;8.990;2023-06-14T04:35:53;2.90;;;2.70;;
12768;SDS011;6448;48.916;8.990;2023-06-14T04:36:57;2.80;;;2.60;;
12768;SDS011;6448;48.916;8.990;2023-06-14T04:38:05;2.88;;;2.67;;
12768;SDS011;6448;48.916;8.990;2023-06-14T04:39:09;3.00;;;2.80;;
12768;SDS011;6448;48.916;8.990;2023-06-14T04:40:11;3.15;;;2.85;;
12768;SDS011;6448;48.916;8.990;2023-06-14T04:41:12;2.70;;;2.50;;
12768;SDS011;6448;48.916;8.990;2023-06-14T04:42:16;2.85;;;2.65;;
12768;SDS011;6448;48.916;8.990;2023-06-14T04:43:20;2.72;;;2.53;;
12768;SDS011;6448;48.916;8.990;2023-06-14T04:44:29;2.55;;;2.35;;
12768;SDS011;6448;48.916;8.990;2023-06-14T04:45:33;2.70;;;2.50;;
12768;SDS011;6448;48.916;8.990;2023-06-14T04:46:38;3.10;;;2.80;;
12768;SDS011;6448;48.916;8.990;2023-06-14T04:47:48;2.80;;;2.60;;
12768;SDS011;6448;48.916;8.990;2023-06-14T04:48:50;3.03;;;2.72;;
12768;SDS011;6448;48.916;8.990;2023-06-14T04:49:51;3.00;;;2.80;;
12768;SDS011;6448;48.916;8.990;2023-06-14T04:50:55;2.63;;;2.42;;
12768;SDS011;6448;48.916;8.990;2023-06-14T04:51:57;2.80;;;2.60;;
12768;SDS011;6448;48.916;8.990;2023-06-14T04:53:01;2.80;;;2.60;;
12768;SDS011;6448;48.916;8.990;2023-06-14T04:54:03;2.88;;;2.67;;
12768;SDS011;6448;48.916;8.990;2023-06-14T04:55:05;2.70;;;2.50;;
12768;SDS011;6448;48.916;8.990;2023-06-14T04:56:07;2.70;;;2.50;;
12768;SDS011;6448;48.916;8.990;2023-06-14T04:57:10;2.80;;;2.60;;
12768;SDS011;6448;48.916;8.990;2023-06-14T04:58:14;2.72;;;2.53;;
12768;SDS011;6448;48.916;8.990;2023-06-14T04:59:15;2.88;;;2.67;;
12768;SDS011;6448;48.916;8.990;2023-06-14T05:00:17;3.00;;;2.80;;
12768;SDS011;6448;48.916;8.990;2023-06-14T05:01:20;3.10;;;2.80;;
12768;SDS011;6448;48.916;8.990;2023-06-14T05:02:23;3.10;;;2.80;;
12768;SDS011;6448;48.916;8.990;2023-06-14T05:03:26;2.80;;;2.60;;
12768;SDS011;6448;48.916;8.990;2023-06-14T05:04:27;3.25;;;2.97;;
12768;SDS011;6448;48.916;8.990;2023-06-14T05:05:30;2.92;;;2.72;;
12768;SDS011;6448;48.916;8.990;2023-06-14T05:06:33;2.85;;;2.65;;
12768;SDS011;6448;48.916;8.990;2023-06-14T05:07:36;2.90;;;2.70;;
12768;SDS011;6448;48.916;8.990;2023-06-14T05:08:37;3.00;;;2.80;;
12768;SDS011;6448;48.916;8.990;2023-06-14T05:09:39;3.10;;;2.90;;
12768;SDS011;6448;48.916;8.990;2023-06-14T05:10:40;3.22;;;3.03;;
12768;SDS011;6448;48.916;8.990;2023-06-14T05:11:42;3.20;;;2.90;;
12768;SDS011;6448;48.916;8.990;2023-06-14T05:12:44;3.10;;;2.90;;
12768;SDS011;6448;48.916;8.990;2023-06-14T05:13:47;2.70;;;2.50;;
12768;SDS011;6448;48.916;8.990;2023-06-14T05:14:48;2.95;;;2.75;;
12768;SDS011;6448;48.916;8.990;2023-06-14T05:15:53;3.15;;;2.95;;
12768;SDS011;6448;48.916;8.990;2023-06-14T05:16:53;3.30;;;3.00;;
12768;SDS011;6448;48.916;8.990;2023-06-14T05:17:56;3.10;;;2.90;;
12768;SDS011;6448;48.916;8.990;2023-06-14T05:18:57;3.03;;;2.83;;
12768;SDS011;6448;48.916;8.990;2023-06-14T05:19:59;2.78;;;2.58;;
12768;SDS011;6448;48.916;8.990;2023-06-14T05:21:00;3.05;;;2.72;;
12768;SDS011;6448;48.916;8.990;2023-06-14T05:22:01;3.35;;;3.05;;
12768;SDS011;6448;48.916;8.990;2023-06-14T05:23:03;4.05;;;3.05;;
12768;SDS011;6448;48.916;8.990;2023-06-14T05:24:05;3.03;;;2.83;;
12768;SDS011;6448;48.916;8.990;2023-06-14T05:25:06;2.70;;;2.50;;
12768;SDS011;6448;48.916;8.990;2023-06-14T05:26:08;3.03;;;2.73;;
12768;SDS011;6448;48.916;8.990;2023-06-14T05:27:09;3.03;;;2.83;;
12768;SDS011;6448;48.916;8.990;2023-06-14T05:28:12;2.95;;;2.75;;
12768;SDS011;6448;48.916;8.990;2023-06-14T05:29:12;3.10;;;2.80;;
12768;SDS011;6448;48.916;8.990;2023-06-14T05:30:16;3.00;;;2.80;;
12768;SDS011;6448;48.916;8.990;2023-06-14T05:31:18;3.30;;;2.83;;
12768;SDS011;6448;48.916;8.990;2023-06-14T05:32:19;3.13;;;2.70;;
12768;SDS011;6448;48.916;8.990;2023-06-14T05:33:22;3.27;;;2.97;;
12768;SDS011;6448;48.916;8.990;2023-06-14T05:34:23;3.50;;;2.83;;
12768;SDS011;6448;48.916;8.990;2023-06-14T05:35:24;3.40;;;3.10;;
12768;SDS011;6448;48.916;8.990;2023-06-14T05:36:26;3.20;;;3.00;;
12768;SDS011;6448;48.916;8.990;2023-06-14T05:37:28;3.33;;;3.03;;
12768;SDS011;6448;48.916;8.990;2023-06-14T05:38:29;2.80;;;2.60;;
12768;SDS011;6448;48.916;8.990;2023-06-14T05:39:31;2.85;;;2.65;;
12768;SDS011;6448;48.916;8.990;2023-06-14T05:40:31;3.30;;;3.00;;
12768;SDS011;6448;48.916;8.990;2023-06-14T05:41:33;2.92;;;2.70;;
12768;SDS011;6448;48.916;8.990;2023-06-14T05:42:35;3.00;;;2.80;;
12768;SDS011;6448;48.916;8.990;2023-06-14T05:43:36;3.35;;;3.05;;
12768;SDS011;6448;48.916;8.990;2023-06-14T05:44:37;3.17;;;2.97;;
12768;SDS011;6448;48.916;8.990;2023-06-14T05:45:38;3.35;;;3.05;;
12768;SDS011;6448;48.916;8.990;2023-06-14T05:46:40;2.92;;;2.72;;
12768;SDS011;6448;48.916;8.990;2023-06-14T05:47:41;3.10;;;2.90;;
12768;SDS011;6448;48.916;8.990;2023-06-14T05:48:44;3.40;;;3.10;;
12768;SDS011;6448;48.916;8.990;2023-06-14T05:49:45;3.30;;;3.10;;
12768;SDS011;6448;48.916;8.990;2023-06-14T05:50:46;3.35;;;3.05;;
12768;SDS011;6448;48.916;8.990;2023-06-14T05:51:47;3.35;;;3.05;;
12768;SDS011;6448;48.916;8.990;2023-06-14T05:52:49;3.40;;;3.10;;
12768;SDS011;6448;48.916;8.990;2023-06-14T05:53:50;3.60;;;3.30;;
12768;SDS011;6448;48.916;8.990;2023-06-14T05:54:52;3.25;;;3.05;;
12768;SDS011;6448;48.916;8.990;2023-06-14T05:55:53;3.55;;;3.25;;
12768;SDS011;6448;48.916;8.990;2023-06-14T05:56:55;3.40;;;3.10;;
12768;SDS011;6448;48.916;8.990;2023-06-14T05:57:55;3.15;;;2.95;;
12768;SDS011;6448;48.916;8.990;2023-06-14T05:58:57;3.50;;;3.20;;
12768;SDS011;6448;48.916;8.990;2023-06-14T05:59:58;3.35;;;3.00;;
12768;SDS011;6448;48.916;8.990;2023-06-14T06:01:00;3.35;;;3.08;;
12768;SDS011;6448;48.916;8.990;2023-06-14T06:02:01;3.25;;;3.05;;
12768;SDS011;6448;48.916;8.990;2023-06-14T06:03:03;2.90;;;2.70;;
12768;SDS011;6448;48.916;8.990;2023-06-14T06:04:05;3.10;;;2.88;;
12768;SDS011;6448;48.916;8.990;2023-06-14T06:05:07;3.33;;;3.08;;
12768;SDS011;6448;48.916;8.990;2023-06-14T06:06:08;3.30;;;3.00;;
12768;SDS011;6448;48.916;8.990;2023-06-14T06:07:10;3.00;;;2.80;;
12768;SDS011;6448;48.916;8.990;2023-06-14T06:08:11;3.20;;;3.00;;
12768;SDS011;6448;48.916;8.990;2023-06-14T06:09:13;3.35;;;3.05;;
12768;SDS011;6448;48.916;8.990;2023-06-14T06:10:14;3.47;;;3.17;;
12768;SDS011;6448;48.916;8.990;2023-06-14T06:11:16;3.45;;;3.15;;
12768;SDS011;6448;48.916;8.990;2023-06-14T06:12:17;3.15;;;2.85;;
12768;SDS011;6448;48.916;8.990;2023-06-14T06:13:18;3.30;;;3.00;;
12768;SDS011;6448;48.916;8.990;2023-06-14T06:14:19;3.35;;;3.10;;
12768;SDS011;6448;48.916;8.990;2023-06-14T06:15:21;3.13;;;2.92;;
12768;SDS011;6448;48.916;8.990;2023-06-14T06:16:22;3.58;;;3.28;;
12768;SDS011;6448;48.916;8.990;2023-06-14T06:17:24;3.33;;;3.10;;
12768;SDS011;6448;48.916;8.990;2023-06-14T06:18:25;3.30;;;3.10;;
12768;SDS011;6448;48.916;8.990;2023-06-14T06:19:28;3.40;;;3.20;;
12768;SDS011;6448;48.916;8.990;2023-06-14T06:20:28;3.90;;;3.20;;
12768;SDS011;6448;48.916;8.990;2023-06-14T06:21:31;3.45;;;3.10;;